Time;durP1;ratioP1;P1;durP2;ratioP2;P2;SDS_P1;SDS_P2;PMS_P1;PMS_P2;Temp;Humidity;BMP_temperature;BMP_pressure;BME280_temperature;BME280_humidity;BME280_pressure;Samples;Min_cycle;Max_cycle;Signal;HPM_P1;HPM_P2
2023/01/08 00:03:20;;;;;;;23.62;15.40;;;10.50;87.00;;;;;;10826082;33;20024;-73
2023/01/08 00:09:22;;;;;;;18.87;12.20;;;10.50;87.20;;;;;;10812580;33;20053;-73
2023/01/08 00:15:24;;;;;;;26.55;17.85;;;10.50;87.20;;;;;;10825758;33;20050;-73
2023/01/08 00:21:26;;;;;;;24.60;16.90;;;10.50;87.20;;;;;;10829682;27;20040;-73
2023/01/08 00:27:28;;;;;;;25.83;17.87;;;10.50;87.20;;;;;;10825410;33;20024;-73
2023/01/08 00:33:31;;;;;;;25.75;14.87;;;10.50;87.20;;;;;;10811922;33;20054;-73
2023/01/08 00:39:34;;;;;;;27.62;16.77;;;10.40;87.20;;;;;;10825270;33;20038;-74
2023/01/08 00:45:36;;;;;;;24.33;18.27;;;10.50;87.20;;;;;;10825074;33;20020;-74
2023/01/08 00:52:03;;;;;;;32.47;19.98;;;10.40;87.30;;;;;;10824908;33;20350;-73
2023/01/08 00:58:06;;;;;;;23.83;16.52;;;10.40;87.40;;;;;;10824658;33;20412;-73
2023/01/08 01:04:08;;;;;;;28.48;19.58;;;10.40;87.40;;;;;;10799979;32;20349;-73
2023/01/08 01:10:12;;;;;;;21.50;15.77;;;10.40;87.40;;;;;;10824452;33;20020;-73
2023/01/08 01:16:14;;;;;;;29.95;22.87;;;10.40;87.30;;;;;;10824426;33;20046;-73
2023/01/08 01:22:16;;;;;;;29.23;20.98;;;10.40;87.30;;;;;;10821290;33;20020;-73
2023/01/08 01:28:19;;;;;;;30.25;19.62;;;10.30;87.40;;;;;;10822853;33;20068;-73
2023/01/08 01:34:22;;;;;;;30.73;19.55;;;10.40;87.40;;;;;;10823810;33;20342;-73
2023/01/08 01:40:24;;;;;;;37.42;26.52;;;10.30;87.40;;;;;;10823748;32;20341;-73
2023/01/08 01:46:37;;;;;;;21.00;15.57;;;10.30;87.50;;;;;;10830203;33;20390;-74
2023/01/08 01:52:44;;;;;;;25.60;19.12;;;10.30;87.40;;;;;;10829842;33;20078;-74
2023/01/08 01:58:46;;;;;;;31.27;19.65;;;10.40;87.40;;;;;;10829763;33;20016;-73
2023/01/08 02:04:49;;;;;;;26.27;17.20;;;10.30;87.40;;;;;;10829530;33;20444;-73
2023/01/08 02:10:55;;;;;;;25.45;17.45;;;10.30;87.40;;;;;;10829273;33;20050;-73
2023/01/08 02:17:02;;;;;;;16.85;13.00;;;10.30;87.30;;;;;;10829200;33;20027;-73
2023/01/08 02:23:30;;;;;;;28.10;18.30;;;10.20;87.40;;;;;;10829044;33;20012;-73
2023/01/08 02:29:33;;;;;;;28.17;18.67;;;10.20;87.40;;;;;;10804424;32;20303;-73
2023/01/08 02:35:43;;;;;;;27.25;18.20;;;10.20;87.50;;;;;;10828639;33;20346;-74
2023/01/08 02:41:49;;;;;;;27.87;15.15;;;10.20;87.50;;;;;;10828574;33;20050;-73
2023/01/08 02:47:57;;;;;;;21.73;13.95;;;10.20;87.40;;;;;;10828431;33;20043;-73
2023/01/08 02:54:07;;;;;;;16.20;10.57;;;10.20;87.40;;;;;;10828106;32;20090;-73
2023/01/08 03:00:09;;;;;;;17.33;11.93;;;10.20;87.40;;;;;;10828122;33;20380;-73
2023/01/08 03:06:18;;;;;;;18.35;12.73;;;10.20;87.50;;;;;;10814731;33;20024;-74
2023/01/08 03:12:42;;;;;;;31.60;19.00;;;10.20;87.50;;;;;;10810226;33;20352;-73
2023/01/08 03:18:50;;;;;;;23.62;14.82;;;10.20;87.60;;;;;;10827494;33;20108;-74
2023/01/08 03:24:55;;;;;;;23.08;15.73;;;10.20;87.60;;;;;;10814072;33;20035;-73
2023/01/08 03:30:58;;;;;;;21.35;15.90;;;10.20;87.60;;;;;;10827090;33;20028;-74
2023/01/08 03:37:03;;;;;;;30.12;19.10;;;10.20;87.60;;;;;;10827075;33;20009;-73
2023/01/08 03:43:05;;;;;;;24.23;16.52;;;10.20;87.60;;;;;;10826770;33;20035;-73
2023/01/08 03:49:08;;;;;;;36.65;23.35;;;10.20;87.70;;;;;;10825335;33;20424;-73
2023/01/08 03:55:10;;;;;;;25.37;17.77;;;10.10;87.70;;;;;;10813208;33;20066;-74
2023/01/08 04:01:12;;;;;;;25.00;17.37;;;10.10;87.90;;;;;;10801559;32;20402;-73
2023/01/08 04:07:14;;;;;;;33.75;21.87;;;10.20;87.90;;;;;;10825772;32;20004;-73
2023/01/08 04:13:16;;;;;;;32.75;23.40;;;10.20;88.00;;;;;;10825733;33;20023;-74
2023/01/08 04:19:18;;;;;;;31.73;23.40;;;10.00;87.80;;;;;;10825813;33;20342;-73
2023/01/08 04:25:20;;;;;;;28.77;18.95;;;9.90;88.20;;;;;;10825620;33;20048;-73
2023/01/08 04:31:22;;;;;;;23.10;15.95;;;9.90;88.10;;;;;;10825402;33;20003;-73
2023/01/08 04:37:25;;;;;;;23.80;16.52;;;10.00;88.00;;;;;;10825293;33;20012;-73
2023/01/08 04:43:30;;;;;;;32.53;22.50;;;9.90;87.90;;;;;;10825198;33;20441;-73
2023/01/08 04:49:32;;;;;;;29.67;19.87;;;10.00;87.90;;;;;;10824959;33;20024;-73
2023/01/08 04:55:34;;;;;;;31.17;20.12;;;10.00;88.00;;;;;;10824744;33;20024;-73
2023/01/08 05:01:36;;;;;;;21.92;14.05;;;10.00;88.00;;;;;;10824731;33;20439;-73
2023/01/08 05:07:38;;;;;;;17.23;13.57;;;10.00;88.00;;;;;;10824479;33;20055;-74
2023/01/08 05:13:40;;;;;;;21.45;14.32;;;10.00;88.00;;;;;;10824389;33;20020;-73
2023/01/08 05:19:42;;;;;;;24.75;18.42;;;10.00;87.90;;;;;;10829071;32;20035;-73
2023/01/08 05:25:45;;;;;;;18.75;12.00;;;10.00;88.00;;;;;;10830720;33;20023;-73
2023/01/08 05:31:47;;;;;;;27.70;21.48;;;10.00;87.90;;;;;;10830456;33;20394;-73
2023/01/08 05:37:49;;;;;;;21.98;12.95;;;10.00;87.90;;;;;;10830406;33;20012;-73
2023/01/08 05:43:51;;;;;;;26.83;17.08;;;10.00;88.00;;;;;;10826315;33;20016;-73
2023/01/08 05:49:53;;;;;;;24.40;15.02;;;10.10;88.00;;;;;;10830157;33;20024;-73
2023/01/08 05:56:03;;;;;;;23.20;16.65;;;10.10;88.10;;;;;;10829785;33;20438;-73
2023/01/08 06:02:07;;;;;;;35.83;24.20;;;10.10;88.10;;;;;;10829703;33;20020;-74
2023/01/08 06:08:09;;;;;;;20.00;14.87;;;10.10;88.00;;;;;;10829485;33;20481;-73
2023/01/08 06:14:11;;;;;;;27.52;21.37;;;10.00;88.10;;;;;;10829306;33;20054;-73
2023/01/08 06:20:13;;;;;;;27.17;19.48;;;10.10;88.10;;;;;;10829129;32;20342;-73
2023/01/08 06:26:15;;;;;;;37.92;25.50;;;10.00;88.30;;;;;;10828754;32;20028;-73
2023/01/08 06:32:18;;;;;;;34.45;25.12;;;10.00;88.30;;;;;;10828668;33;20043;-73
2023/01/08 06:38:20;;;;;;;42.42;28.48;;;9.90;88.40;;;;;;10828750;33;20389;-73
2023/01/08 06:44:22;;;;;;;27.35;20.10;;;9.90;88.60;;;;;;10828417;33;20031;-73
2023/01/08 06:50:24;;;;;;;46.08;28.30;;;9.80;88.70;;;;;;10828306;33;20016;-73
2023/01/08 06:56:27;;;;;;;38.38;22.30;;;9.90;88.80;;;;;;10828142;33;20043;-73
2023/01/08 07:02:29;;;;;;;27.48;20.30;;;9.80;88.70;;;;;;10828153;33;20303;-73
2023/01/08 07:08:40;;;;;;;33.90;22.80;;;9.90;88.70;;;;;;10828410;33;20004;-73
2023/01/08 07:14:42;;;;;;;29.20;21.05;;;9.90;88.70;;;;;;10814277;33;20307;-73
2023/01/08 07:20:44;;;;;;;30.27;23.20;;;9.90;88.70;;;;;;10827548;32;20024;-73
2023/01/08 07:26:46;;;;;;;38.47;25.33;;;9.80;88.70;;;;;;10827357;33;20016;-73
2023/01/08 07:32:48;;;;;;;30.48;20.98;;;9.80;88.80;;;;;;10827083;33;20036;-73
2023/01/08 07:38:51;;;;;;;32.42;21.25;;;9.80;88.70;;;;;;10826571;32;20035;-74
2023/01/08 07:44:53;;;;;;;35.42;23.55;;;9.80;88.70;;;;;;10826882;33;20038;-73
2023/01/08 07:51:01;;;;;;;24.23;17.45;;;9.80;88.70;;;;;;10826654;33;20037;-73
2023/01/08 07:57:03;;;;;;;25.08;18.52;;;9.80;88.70;;;;;;10826410;33;20017;-73
2023/01/08 08:03:10;;;;;;;38.97;28.30;;;9.80;88.80;;;;;;10813074;33;20039;-73
2023/01/08 08:09:17;;;;;;;27.75;21.52;;;9.70;88.60;;;;;;10812961;33;20024;-73
2023/01/08 08:15:19;;;;;;;35.30;25.20;;;9.70;88.80;;;;;;10812792;33;20016;-74
2023/01/08 08:21:22;;;;;;;25.12;19.30;;;9.70;88.80;;;;;;10625096;27;6359117;-74
2023/01/08 08:27:24;;;;;;;37.88;28.75;;;9.80;88.70;;;;;;10787991;33;20021;-74
2023/01/08 08:33:26;;;;;;;29.58;21.30;;;9.90;88.60;;;;;;10774686;33;20067;-73
2023/01/08 08:39:28;;;;;;;22.13;17.90;;;9.80;88.50;;;;;;10784690;33;20024;-74
2023/01/08 08:45:30;;;;;;;31.98;24.42;;;9.90;88.70;;;;;;10787399;33;20102;-73
2023/01/08 08:51:45;;;;;;;35.22;26.33;;;9.90;88.60;;;;;;10787077;33;20036;-74
2023/01/08 08:57:48;;;;;;;32.78;24.23;;;9.80;88.60;;;;;;10774899;33;20334;-73
2023/01/08 09:03:50;;;;;;;45.90;29.40;;;9.80;88.70;;;;;;10787935;33;20043;-73
2023/01/08 09:09:52;;;;;;;44.65;34.47;;;9.90;88.80;;;;;;10787742;33;20016;-73
2023/01/08 09:15:58;;;;;;;29.85;22.73;;;9.80;88.70;;;;;;10785664;33;20040;-73
2023/01/08 09:22:01;;;;;;;44.78;33.35;;;9.70;88.80;;;;;;10787090;33;20499;-73
2023/01/08 09:28:06;;;;;;;43.67;30.20;;;9.80;88.80;;;;;;10787443;33;20020;-73
2023/01/08 09:34:08;;;;;;;31.60;24.00;;;9.70;88.40;;;;;;10787273;33;20032;-73
2023/01/08 09:40:15;;;;;;;34.30;25.70;;;9.70;88.70;;;;;;10787103;33;20077;-74
2023/01/08 09:46:20;;;;;;;42.15;26.48;;;9.80;88.50;;;;;;10786867;33;20025;-74
2023/01/08 09:52:23;;;;;;;31.42;25.20;;;9.80;88.60;;;;;;10785356;33;20062;-74
2023/01/08 09:58:39;;;;;;;31.75;23.62;;;9.90;88.70;;;;;;10784086;33;20055;-74
2023/01/08 10:04:42;;;;;;;27.42;21.70;;;9.90;88.60;;;;;;10790176;33;20351;-74
2023/01/08 10:10:44;;;;;;;30.33;21.92;;;9.90;88.60;;;;;;10792761;33;20024;-74
2023/01/08 10:16:57;;;;;;;32.17;20.90;;;9.90;88.60;;;;;;10785390;33;20054;-74
2023/01/08 10:23:11;;;;;;;32.45;25.75;;;9.90;88.40;;;;;;10792029;33;20071;-74
2023/01/08 10:29:18;;;;;;;30.95;23.20;;;9.90;88.40;;;;;;10792191;33;20394;-74
2023/01/08 10:35:50;;;;;;;39.85;28.75;;;9.80;88.40;;;;;;10791970;33;20032;-74
2023/01/08 10:41:56;;;;;;;42.13;31.45;;;9.80;88.40;;;;;;10792541;33;20020;-74
2023/01/08 10:48:03;;;;;;;38.13;25.23;;;9.80;88.40;;;;;;10791631;33;20051;-74
2023/01/08 10:54:48;;;;;;;29.83;21.52;;;9.90;88.60;;;;;;10791198;33;20429;-74
2023/01/08 11:00:51;;;;;;;29.77;20.92;;;9.90;88.50;;;;;;10790456;33;20064;-74
2023/01/08 11:06:58;;;;;;;38.15;27.02;;;9.90;88.50;;;;;;10790667;33;20019;-74
2023/01/08 11:13:06;;;;;;;39.45;30.48;;;10.00;88.50;;;;;;10788844;33;20025;-73
2023/01/08 11:19:21;;;;;;;36.95;28.00;;;10.00;88.40;;;;;;10790353;33;20084;-74
2023/01/08 11:25:28;;;;;;;54.13;37.20;;;9.90;88.40;;;;;;10790322;33;20020;-74
2023/01/08 11:31:42;;;;;;;38.95;29.33;;;9.80;88.40;;;;;;10790320;33;20028;-74
2023/01/08 11:37:53;;;;;;;42.92;27.77;;;9.80;88.60;;;;;;10789499;33;20033;-74
2023/01/08 11:44:38;;;;;;;42.55;30.08;;;9.80;88.60;;;;;;10789835;33;20398;-73
2023/01/08 11:51:01;;;;;;;49.03;32.55;;;9.80;88.80;;;;;;10785353;33;20453;-73
2023/01/08 11:57:23;;;;;;;45.78;34.22;;;9.90;88.80;;;;;;10747083;33;20155;-73
2023/01/08 12:04:02;;;;;;;56.88;41.67;;;9.80;88.90;;;;;;10748788;33;20047;-74
2023/01/08 12:10:11;;;;;;;46.75;33.50;;;9.80;89.00;;;;;;10748641;32;20045;-73
2023/01/08 12:16:36;;;;;;;;;;;9.70;89.00;;;;;;10746099;33;20357;-73
2023/01/08 12:23:03;;;;;;;36.40;25.83;;;9.70;89.20;;;;;;10747100;33;19947;-73
2023/01/08 12:29:46;;;;;;;44.13;30.10;;;9.80;89.20;;;;;;10747870;33;20032;-73
2023/01/08 12:35:53;;;;;;;44.13;32.30;;;9.70;89.10;;;;;;10784143;32;20456;-73
2023/01/08 12:42:23;;;;;;;50.05;29.92;;;9.70;89.30;;;;;;10784157;32;20043;-73
2023/01/08 12:48:29;;;;;;;58.03;42.58;;;9.70;89.20;;;;;;10780118;32;20308;-73
2023/01/08 12:54:49;;;;;;;60.53;43.05;;;9.70;89.20;;;;;;10783802;33;20059;-73
2023/01/08 13:01:14;;;;;;;62.00;45.47;;;9.60;89.50;;;;;;10783842;33;20074;-73
2023/01/08 13:07:41;;;;;;;56.65;40.65;;;9.60;89.40;;;;;;10783788;33;20021;-74
2023/01/08 13:13:44;;;;;;;50.80;35.63;;;9.60;89.50;;;;;;10787534;33;20024;-74
2023/01/08 13:19:53;;;;;;;58.67;43.33;;;9.60;89.50;;;;;;10787148;33;20043;-73
2023/01/08 13:25:58;;;;;;;55.22;36.33;;;9.60;89.50;;;;;;10787394;33;20058;-73
2023/01/08 13:32:00;;;;;;;62.67;44.78;;;9.60;89.60;;;;;;10787244;33;20028;-73
2023/01/08 13:38:16;;;;;;;63.50;41.58;;;9.60;89.50;;;;;;10788709;33;20020;-73
2023/01/08 13:44:25;;;;;;;69.22;48.15;;;9.60;89.50;;;;;;10792249;33;20059;-72
2023/01/08 13:50:29;;;;;;;61.28;40.83;;;9.50;89.40;;;;;;10793417;33;20013;-73
2023/01/08 13:56:31;;;;;;;54.10;35.85;;;9.50;89.50;;;;;;10788756;33;20393;-73
2023/01/08 14:02:48;;;;;;;63.90;45.75;;;9.50;89.70;;;;;;10789377;33;20149;-73
2023/01/08 14:08:51;;;;;;;65.28;44.75;;;9.40;89.60;;;;;;10791177;33;20021;-73
2023/01/08 14:14:59;;;;;;;68.65;42.47;;;9.50;89.70;;;;;;10792067;33;20055;-73
2023/01/08 14:21:23;;;;;;;52.70;37.65;;;9.50;89.80;;;;;;10786456;33;20064;-73
2023/01/08 14:27:29;;;;;;;54.05;34.58;;;9.50;89.70;;;;;;10791434;33;20016;-73
2023/01/08 14:33:36;;;;;;;61.37;32.10;;;9.50;89.80;;;;;;10788046;33;20063;-73
2023/01/08 14:39:39;;;;;;;50.20;31.77;;;9.40;89.80;;;;;;10787274;33;20366;-72
2023/01/08 14:46:17;;;;;;;42.55;27.40;;;9.50;89.90;;;;;;10777777;33;20071;-73
2023/01/08 14:52:21;;;;;;;44.17;26.43;;;9.50;89.90;;;;;;10790987;33;20020;-73
2023/01/08 14:58:34;;;;;;;46.03;30.58;;;9.60;89.90;;;;;;10789735;33;20020;-74
2023/01/08 15:04:36;;;;;;;41.08;27.50;;;9.60;89.90;;;;;;10790179;33;20035;-73
2023/01/08 15:10:42;;;;;;;41.92;23.45;;;9.60;89.90;;;;;;10790132;33;20013;-73
2023/01/08 15:17:11;;;;;;;41.22;26.17;;;9.70;89.80;;;;;;10788830;33;20055;-73
2023/01/08 15:23:45;;;;;;;34.38;23.85;;;9.70;89.80;;;;;;10789707;33;20346;-73
2023/01/08 15:30:02;;;;;;;47.67;31.83;;;9.80;89.70;;;;;;10790605;33;20016;-73
2023/01/08 15:36:05;;;;;;;39.78;25.90;;;9.70;89.70;;;;;;10790423;33;20024;-73
2023/01/08 15:48:39;;;;;;;40.33;25.88;;;9.70;89.70;;;;;;10790110;33;20017;-73
2023/01/08 15:54:41;;;;;;;43.80;27.48;;;9.60;89.40;;;;;;10789734;33;20021;-73
2023/01/08 16:00:49;;;;;;;43.30;25.30;;;9.60;89.70;;;;;;10789139;33;20020;-73
2023/01/08 16:06:51;;;;;;;35.75;23.20;;;9.50;89.70;;;;;;10789525;33;20021;-73
2023/01/08 16:12:53;;;;;;;50.40;32.15;;;9.50;89.80;;;;;;10784253;33;20028;-73
2023/01/08 16:18:55;;;;;;;40.20;25.00;;;9.50;89.80;;;;;;10788834;33;20024;-73
2023/01/08 16:25:08;;;;;;;52.10;33.70;;;9.50;89.80;;;;;;10953257;27;20031;-73
2023/01/08 16:31:10;;;;;;;50.75;26.23;;;9.40;89.80;;;;;;10967261;32;20107;-73
2023/01/08 16:37:13;;;;;;;47.50;31.00;;;9.40;89.80;;;;;;10980322;32;20066;-73
2023/01/08 16:43:15;;;;;;;58.87;38.28;;;9.40;89.80;;;;;;10966289;32;20042;-73
2023/01/08 16:49:20;;;;;;;55.67;37.95;;;9.40;89.90;;;;;;10979895;32;20426;-73
2023/01/08 16:55:23;;;;;;;47.80;29.85;;;9.30;89.90;;;;;;10979738;32;20463;-73
2023/01/08 17:01:27;;;;;;;47.08;30.85;;;9.30;89.80;;;;;;10979474;32;20022;-73
2023/01/08 17:07:29;;;;;;;47.13;29.40;;;9.30;89.90;;;;;;10979523;32;20344;-73
2023/01/08 17:13:31;;;;;;;42.03;27.15;;;9.30;90.00;;;;;;10978770;32;20440;-73
2023/01/08 17:19:33;;;;;;;64.07;44.97;;;9.30;89.90;;;;;;10962496;32;20049;-73
2023/01/08 17:25:39;;;;;;;56.75;35.58;;;9.30;90.00;;;;;;10976235;32;20140;-73
2023/01/08 17:31:41;;;;;;;46.25;30.17;;;9.20;89.90;;;;;;10978748;32;20069;-73
2023/01/08 17:37:44;;;;;;;65.62;42.42;;;9.20;90.00;;;;;;10964296;32;20042;-74
2023/01/08 17:43:47;;;;;;;38.80;25.27;;;9.20;89.90;;;;;;10964623;32;20011;-73
2023/01/08 17:49:53;;;;;;;51.30;31.55;;;9.20;90.00;;;;;;10977816;32;20050;-74
2023/01/08 17:56:00;;;;;;;48.25;30.50;;;9.20;89.90;;;;;;10951281;32;20053;-74
2023/01/08 18:02:04;;;;;;;47.25;27.15;;;9.20;89.90;;;;;;10964471;32;20222;-72
2023/01/08 18:08:06;;;;;;;51.92;34.38;;;9.20;90.00;;;;;;10978547;32;20015;-72
2023/01/08 18:14:12;;;;;;;41.60;27.65;;;9.20;89.90;;;;;;10964487;32;20043;-72
2023/01/08 18:20:14;;;;;;;48.33;28.92;;;9.20;89.90;;;;;;10978345;32;20037;-73
2023/01/08 18:26:19;;;;;;;52.92;33.28;;;9.20;90.00;;;;;;10982638;32;20408;-73
2023/01/08 18:32:24;;;;;;;53.33;30.48;;;9.20;90.00;;;;;;10971275;32;20046;-73
2023/01/08 18:38:28;;;;;;;48.85;32.45;;;9.20;90.00;;;;;;10970725;32;20061;-73
2023/01/08 18:44:30;;;;;;;39.58;24.98;;;9.20;89.80;;;;;;10984353;32;20048;-73
2023/01/08 18:50:32;;;;;;;33.30;21.92;;;9.20;89.90;;;;;;10984290;32;20322;-72
2023/01/08 18:56:35;;;;;;;38.88;27.15;;;9.20;90.00;;;;;;10957710;32;20038;-73
2023/01/08 19:02:50;;;;;;;46.13;28.70;;;9.20;89.90;;;;;;10967162;32;20038;-73
2023/01/08 19:08:53;;;;;;;65.03;39.50;;;9.20;90.00;;;;;;10969681;32;20351;-73
2023/01/08 19:14:55;;;;;;;61.28;41.95;;;9.20;90.00;;;;;;10983255;32;20026;-74
2023/01/08 19:20:59;;;;;;;23.90;15.82;;;9.20;90.00;;;;;;10956751;32;20049;-73
2023/01/08 19:27:08;;;;;;;43.70;26.05;;;9.20;90.10;;;;;;10982966;32;20041;-73
2023/01/08 19:33:12;;;;;;;44.05;24.60;;;9.20;90.00;;;;;;10982487;32;20049;-73
2023/01/08 19:39:14;;;;;;;29.35;18.08;;;9.20;90.00;;;;;;10981570;32;20390;-73
2023/01/08 19:45:18;;;;;;;42.10;26.33;;;9.20;90.10;;;;;;10968797;32;20018;-73
2023/01/08 19:51:19;;;;;;;44.47;30.23;;;9.20;90.00;;;;;;10968442;32;20314;-73
2023/01/08 19:57:31;;;;;;;51.65;33.35;;;9.20;90.10;;;;;;10982358;32;20379;-73
2023/01/08 20:03:33;;;;;;;48.28;28.92;;;9.20;90.10;;;;;;10967801;32;20434;-73
2023/01/08 20:09:40;;;;;;;35.47;24.25;;;9.10;90.20;;;;;;10977340;32;20019;-73
2023/01/08 20:15:42;;;;;;;46.63;29.83;;;9.20;90.30;;;;;;10967222;32;20064;-72
2023/01/08 20:21:44;;;;;;;31.75;22.65;;;9.20;90.30;;;;;;10980814;32;20038;-72
2023/01/08 20:27:46;;;;;;;34.50;22.92;;;9.20;90.30;;;;;;10980722;32;20423;-72
2023/01/08 20:33:50;;;;;;;42.00;28.42;;;9.20;90.30;;;;;;10980363;32;20007;-72
2023/01/08 20:39:59;;;;;;;34.03;23.92;;;9.20;90.40;;;;;;10980230;32;20417;-73
2023/01/08 20:46:02;;;;;;;33.63;25.17;;;9.20;90.40;;;;;;10962344;32;20034;-72
2023/01/08 20:52:05;;;;;;;23.80;17.33;;;9.20;90.40;;;;;;10979937;32;20040;-72
2023/01/08 20:58:09;;;;;;;34.17;22.77;;;9.20;90.50;;;;;;10979777;32;20019;-73
2023/01/08 21:04:11;;;;;;;32.47;20.88;;;9.20;90.50;;;;;;10965775;32;20069;-72
2023/01/08 21:10:13;;;;;;;23.90;18.00;;;9.20;90.50;;;;;;10979377;32;20018;-73
2023/01/08 21:16:27;;;;;;;33.13;21.65;;;9.20;90.60;;;;;;10979279;32;20026;-73
2023/01/08 21:22:29;;;;;;;30.12;20.45;;;9.30;90.50;;;;;;10979476;32;20037;-73
2023/01/08 21:28:32;;;;;;;28.25;18.58;;;9.20;90.50;;;;;;10961194;32;20450;-73
2023/01/08 21:34:34;;;;;;;18.20;11.90;;;9.20;90.60;;;;;;10979061;32;20023;-72
2023/01/08 21:40:36;;;;;;;16.42;11.95;;;9.30;90.60;;;;;;10965605;32;20019;-72
2023/01/08 21:46:38;;;;;;;20.77;12.70;;;9.30;90.70;;;;;;10979106;32;20034;-74
2023/01/08 21:59:01;;;;;;;18.92;13.15;;;9.40;90.60;;;;;;10980763;32;20018;-75
2023/01/08 22:05:04;;;;;;;18.35;11.35;;;9.50;90.60;;;;;;10986153;32;20419;-77
2023/01/08 22:11:07;;;;;;;22.20;14.13;;;9.50;90.60;;;;;;10985794;32;20023;-73
2023/01/08 22:17:10;;;;;;;14.15;9.93;;;9.50;90.70;;;;;;10985500;32;20353;-73
2023/01/08 22:23:12;;;;;;;13.30;9.23;;;9.50;90.50;;;;;;10971145;32;20085;-73
2023/01/08 22:29:14;;;;;;;14.35;9.45;;;9.50;90.60;;;;;;10985052;32;20049;-72
2023/01/08 22:35:16;;;;;;;11.75;8.30;;;9.50;90.60;;;;;;10984693;32;20385;-72
2023/01/08 22:41:22;;;;;;;8.40;5.43;;;9.50;90.60;;;;;;10971156;32;20054;-72
2023/01/08 22:47:24;;;;;;;13.57;7.85;;;9.60;90.60;;;;;;10968408;32;20065;-72
2023/01/08 22:53:38;;;;;;;18.15;10.88;;;9.60;90.60;;;;;;10970614;32;20034;-73
2023/01/08 23:00:00;;;;;;;18.05;12.27;;;9.60;90.70;;;;;;10984111;32;20026;-73
2023/01/08 23:06:02;;;;;;;16.80;12.82;;;9.60;90.80;;;;;;10983892;32;20031;-73
2023/01/08 23:12:05;;;;;;;15.95;11.77;;;9.60;90.90;;;;;;10969632;32;20022;-73
2023/01/08 23:18:07;;;;;;;15.02;10.63;;;9.60;91.10;;;;;;10983512;32;20022;-73
2023/01/08 23:24:12;;;;;;;16.48;12.55;;;9.60;91.10;;;;;;10983375;32;20019;-73
2023/01/08 23:30:14;;;;;;;17.92;11.98;;;9.60;91.10;;;;;;10983222;32;20049;-73
2023/01/08 23:36:19;;;;;;;18.23;13.00;;;9.60;91.20;;;;;;10969345;32;20018;-73
2023/01/08 23:42:21;;;;;;;15.88;12.48;;;9.60;91.30;;;;;;10982116;32;20054;-73
2023/01/08 23:48:23;;;;;;;14.45;12.07;;;9.60;91.40;;;;;;10982436;32;20053;-73
2023/01/08 23:54:25;;;;;;;15.68;11.65;;;9.60;91.50;;;;;;10982051;32;20023;-73
